Terminal Aerodrome Forecast
Issued by NWS Charleston, WV

Current Version | Previous Version | Text Only | Print | Product List | Glossary Off
Versions: 1 2 3 4 5 6 7 8 9 10 11 12 13 14 15 16 17 18 19 20 21 22 23 24

000
FTUS41 KRLX 021126
TAFHTS
TAF
KHTS 021126Z 0212/0312 23004KT P6SM SCT250
     FM021300 24005KT P6SM BKN035
     FM021400 25006KT P6SM BKN025
     FM021700 25010G15KT P6SM BKN035
     FM022100 27009KT P6SM BKN035
     FM030200 28005KT P6SM SCT045=

USA.gov is the U.S. government's official web portal to all federal, state and local government web resources and services.